Hlavní strana
METAR-TAF:

METAR-TAF

Letiště :

Stokmarknes, Norsko

zeměpisná šířka: 68-35N, zeměpisná délka: 015-01E, výška: 0 m

Aktuální stav počasí

Zpráva byla vytvořena před 5 hodinami a 41 minutami, v 21:20 UTC
vítr z různých směrů 2 kt
Teplota 8°C
Vlhkost vzduchu 87%
Tlak 1007 hPa
Viditelnost 10 km a více
Skoro jasno ve výšce 2500 ft
Oblačno až skoro zataženo ve výšce 4000 ft

METAR: ENSK 132120Z VRB02KT 9999 FEW025 BKN040 08/06 Q1007

Čas: 04:01 (03:01 UTC)


TAF: chybějící

Stav a předpovědi počasí z více než 4 000 letišť (zprávy METAR a TAF).

Červené a žluté tečky na mapě představují dostupné meteorologické stanice.

Když kurzor umístíte na tečku, zobrazí se název stanice.

Pak kliknutím zobrazíte stav a předpověď počasí.

Chcete-li změnit mapu, kliknutím na zelené tlačítko se znaménkem +mapu přiblížíte, kliknutím na zelené tlačítko se znaménkem – mapu oddálíte a kliknutím na zelené šipky přejdete na sousední mapy.


METAR-TAF: